createdAt,value
2022-08-30T00:03:59.918Z,97330.84
2022-08-30T00:09:03.279Z,97341.78
2022-08-30T00:14:06.931Z,97337.75
2022-08-30T00:19:11.537Z,97334.88
2022-08-30T00:24:15.053Z,97337.09
2022-08-30T00:29:18.582Z,97349.03
2022-08-30T00:34:23.904Z,97345.00
2022-08-30T00:39:27.939Z,97354.97
2022-08-30T00:44:34.424Z,97342.44
2022-08-30T00:49:42.372Z,97344.50
2022-08-30T00:54:47.962Z,97350.13
2022-08-30T00:59:52.901Z,97346.44
2022-08-30T01:05:01.648Z,97351.91
2022-08-30T01:10:09.383Z,97350.13
2022-08-30T01:15:15.345Z,97346.44
2022-08-30T01:20:29.670Z,97355.44
2022-08-30T01:25:40.106Z,97357.25
2022-08-30T01:30:43.440Z,97357.38
2022-08-30T01:35:55.854Z,97356.06
2022-08-30T01:41:01.338Z,97351.91
2022-08-30T01:46:07.316Z,97340.47
2022-08-30T01:51:13.666Z,97351.09
2022-08-30T01:56:17.678Z,97348.84
2022-08-30T02:01:26.963Z,97347.38
2022-08-30T02:06:30.105Z,97346.59
2022-08-30T02:11:33.990Z,97340.00
2022-08-30T02:16:38.009Z,97344.19
2022-08-30T02:21:41.712Z,97332.72
2022-08-30T02:26:45.743Z,97342.41
2022-08-30T02:31:50.078Z,97338.84
2022-08-30T02:36:55.307Z,97347.22
2022-08-30T02:41:58.455Z,97344.19
2022-08-30T02:47:05.375Z,97343.84
2022-08-30T02:52:08.772Z,97350.13
2022-08-30T02:57:19.983Z,97341.44
2022-08-30T03:02:32.068Z,97347.72
2022-08-30T03:07:35.385Z,97349.16
2022-08-30T03:12:38.990Z,97361.72
2022-08-30T03:17:42.602Z,97367.50
2022-08-30T03:22:47.730Z,97368.63
2022-08-30T03:27:51.425Z,97370.09
2022-08-30T03:32:58.020Z,97381.97
2022-08-30T03:38:01.458Z,97377.31
2022-08-30T03:43:06.613Z,97380.88
2022-08-30T03:48:11.074Z,97389.22
2022-08-30T03:53:15.175Z,97389.72
2022-08-30T03:58:19.461Z,97399.22
2022-08-30T04:03:22.840Z,97387.47
2022-08-30T04:08:29.651Z,97396.50
2022-08-30T04:13:35.940Z,97403.75
2022-08-30T04:18:39.259Z,97406.81
2022-08-30T04:23:46.399Z,97406.97
2022-08-30T04:28:50.226Z,97407.63
2022-08-30T04:33:53.617Z,97415.34
2022-08-30T04:39:02.847Z,97424.69
2022-08-30T04:44:19.202Z,97425.50
2022-08-30T04:49:23.757Z,97433.88
2022-08-30T04:54:28.897Z,97432.75
2022-08-30T04:59:35.083Z,97439.50
2022-08-30T05:04:44.253Z,97447.59
2022-08-30T05:09:48.667Z,97441.81
2022-08-30T05:15:05.750Z,97452.13
2022-08-30T05:20:11.671Z,97453.28
2022-08-30T05:25:16.748Z,97458.72
2022-08-30T05:30:21.933Z,97456.78
2022-08-30T05:35:26.134Z,97464.88
2022-08-30T05:40:32.865Z,97467.25
2022-08-30T05:45:39.003Z,97469.34
2022-08-30T05:50:42.746Z,97468.50
2022-08-30T05:55:46.730Z,97465.91
2022-08-30T06:00:53.376Z,97461.16
2022-08-30T06:06:02.433Z,97471.50
2022-08-30T06:11:09.268Z,97470.03
2022-08-30T06:16:14.770Z,97466.72
2022-08-30T06:21:35.803Z,97471.72
2022-08-30T06:26:42.731Z,97479.72
2022-08-30T06:31:46.655Z,97482.63
2022-08-30T06:36:51.148Z,97489.66
2022-08-30T06:41:56.765Z,97490.97
2022-08-30T06:47:05.929Z,97495.19
2022-08-30T06:52:09.465Z,97497.28
2022-08-30T06:57:15.449Z,97495.09
2022-08-30T07:02:19.956Z,97490.63
2022-08-30T07:07:28.182Z,97497.84
2022-08-30T07:12:33.293Z,97496.22
2022-08-30T07:17:39.827Z,97499.00
2022-08-30T07:22:42.919Z,97496.94
2022-08-30T07:27:47.638Z,97485.34
2022-08-30T07:32:57.112Z,97500.16
2022-08-30T07:38:01.001Z,97497.22
2022-08-30T07:43:04.702Z,97500.78
2022-08-30T07:48:08.900Z,97499.97
2022-08-30T07:53:12.514Z,97492.38
2022-08-30T07:58:15.910Z,97488.56
2022-08-30T08:03:19.530Z,97486.34
2022-08-30T08:08:23.871Z,97485.09
2022-08-30T08:13:28.588Z,97480.41
2022-08-30T08:18:38.438Z,97478.16
2022-08-30T08:23:42.230Z,97474.63
2022-08-30T08:28:45.964Z,97470.19
2022-08-30T08:33:49.477Z,97472.13
2022-08-30T08:38:53.866Z,97467.78
2022-08-30T08:44:00.204Z,97474.56
2022-08-30T08:49:08.823Z,97463.66
2022-08-30T08:54:32.672Z,97458.00
2022-08-30T08:59:36.028Z,97457.78
2022-08-30T09:04:42.735Z,97460.28
2022-08-30T09:09:48.678Z,97457.94
2022-08-30T09:14:55.789Z,97462.13
2022-08-30T09:20:01.245Z,97455.94
2022-08-30T09:25:10.201Z,97456.41
2022-08-30T09:30:27.091Z,97457.91
2022-08-30T09:35:44.343Z,97448.84
2022-08-30T09:40:51.544Z,97455.16
2022-08-30T09:46:01.271Z,97448.59
2022-08-30T09:51:12.231Z,97448.47
2022-08-30T09:56:26.261Z,97454.28
2022-08-30T10:01:36.995Z,97456.78
2022-08-30T10:07:05.430Z,97459.59
2022-08-30T10:12:24.351Z,97450.50
2022-08-30T10:18:16.655Z,97444.66
2022-08-30T10:23:33.527Z,97443.31
2022-08-30T10:28:50.542Z,97446.66
2022-08-30T10:34:03.362Z,97444.72
2022-08-30T10:39:15.127Z,97433.59
2022-08-30T10:44:28.090Z,97435.19
2022-08-30T10:49:40.416Z,97426.59
2022-08-30T10:54:54.786Z,97427.31
2022-08-30T11:00:06.052Z,97424.88
2022-08-30T11:05:27.660Z,97419.53
2022-08-30T11:10:56.306Z,97420.22
2022-08-30T11:16:04.479Z,97415.16
2022-08-30T11:21:35.715Z,97417.00
2022-08-30T11:26:48.170Z,97411.13
2022-08-30T11:31:51.456Z,97405.75
2022-08-30T11:36:58.134Z,97405.50
2022-08-30T11:42:55.246Z,97406.88
2022-08-30T11:48:04.372Z,97397.44
2022-08-30T11:53:38.085Z,97392.75
2022-08-30T11:59:23.081Z,97375.41
2022-08-30T12:04:38.871Z,97377.38
2022-08-30T12:09:46.135Z,97369.91
2022-08-30T12:14:50.544Z,97366.31
2022-08-30T12:19:54.956Z,97360.44
2022-08-30T12:25:02.554Z,97351.41
2022-08-30T12:30:09.977Z,97348.31
2022-08-30T12:35:25.470Z,97338.34
2022-08-30T12:40:37.252Z,97335.84
2022-08-30T12:45:50.835Z,97341.03
2022-08-30T12:50:59.521Z,97334.97
2022-08-30T12:56:06.486Z,97341.75
2022-08-30T13:01:29.215Z,97340.72
2022-08-30T13:06:56.167Z,97332.00
2022-08-30T13:12:04.168Z,97334.19
2022-08-30T13:17:11.222Z,97331.00
2022-08-30T13:22:42.882Z,97327.78
2022-08-30T13:27:46.591Z,97317.00
2022-08-30T13:32:53.016Z,97321.81
2022-08-30T13:37:59.929Z,97314.84
2022-08-30T13:43:03.470Z,97314.38
2022-08-30T13:48:07.243Z,97309.47
2022-08-30T13:53:10.941Z,97294.56
2022-08-30T13:58:14.495Z,97297.41
2022-08-30T14:03:18.061Z,97294.78
2022-08-30T14:19:16.207Z,97285.94
2022-08-30T14:24:20.025Z,97277.28
2022-08-30T14:29:28.463Z,97278.19
2022-08-30T14:34:34.002Z,97276.47
2022-08-30T14:39:37.969Z,97277.22
2022-08-30T14:44:55.806Z,97266.78
2022-08-30T14:50:00.145Z,97257.41
2022-08-30T14:55:09.039Z,97254.38
2022-08-30T15:00:14.000Z,97250.59
2022-08-30T15:05:18.698Z,97241.97
2022-08-30T15:10:23.863Z,97243.63
2022-08-30T15:15:27.480Z,97244.66
2022-08-30T15:20:30.810Z,97242.09
2022-08-30T15:25:34.112Z,97224.28
2022-08-30T15:30:38.159Z,97222.78
2022-08-30T15:35:44.505Z,97225.38
2022-08-30T15:40:50.505Z,97230.09
2022-08-30T15:45:55.287Z,97234.84
2022-08-30T15:50:59.506Z,97237.31
2022-08-30T15:56:03.222Z,97239.66
2022-08-30T16:01:08.014Z,97238.25
2022-08-30T16:06:16.914Z,97235.88
2022-08-30T16:11:30.527Z,97232.84
2022-08-30T16:16:34.466Z,97222.41
2022-08-30T16:21:39.832Z,97221.28
2022-08-30T16:26:44.980Z,97223.06
2022-08-30T16:31:49.082Z,97222.00
2022-08-30T16:36:52.503Z,97229.25
2022-08-30T16:41:57.083Z,97228.28
2022-08-30T16:47:01.098Z,97240.72
2022-08-30T16:52:04.843Z,97228.16
2022-08-30T16:57:10.704Z,97233.84
2022-08-30T17:02:15.990Z,97244.66
2022-08-30T17:07:22.413Z,97249.66
2022-08-30T17:12:28.371Z,97250.78
2022-08-30T17:17:34.576Z,97247.09
2022-08-30T17:22:38.054Z,97251.91
2022-08-30T17:27:41.906Z,97253.69
2022-08-30T17:32:45.649Z,97271.91
2022-08-30T17:37:53.998Z,97274.63
2022-08-30T17:42:58.516Z,97263.84
2022-08-30T17:48:02.710Z,97275.28
2022-08-30T17:53:06.157Z,97283.47
2022-08-30T17:58:10.189Z,97283.81
2022-08-30T18:03:14.054Z,97300.41
2022-08-30T18:08:18.810Z,97314.09
2022-08-30T18:13:25.305Z,97313.59
2022-08-30T18:18:28.915Z,97331.31
2022-08-30T18:23:32.971Z,97330.66
2022-08-30T18:28:37.962Z,97331.94
2022-08-30T18:33:42.566Z,97335.97
2022-08-30T18:38:47.695Z,97342.72
2022-08-30T18:44:05.828Z,97323.72
2022-08-30T18:49:16.542Z,97322.25
2022-08-30T18:54:20.636Z,97323.06
2022-08-30T18:59:24.434Z,97312.91
2022-08-30T19:04:42.732Z,97314.50
2022-08-30T19:09:51.353Z,97316.16
2022-08-30T19:14:57.622Z,97313.06
2022-08-30T19:20:01.991Z,97305.50
2022-08-30T19:25:08.174Z,97298.75
2022-08-30T19:30:24.001Z,97299.72
2022-08-30T19:35:30.650Z,97290.34
2022-08-30T19:40:34.102Z,97296.16
2022-08-30T19:45:40.137Z,97292.44
2022-08-30T19:50:48.654Z,97289.34
2022-08-30T19:55:52.801Z,97331.75
2022-08-30T20:01:01.275Z,97311.59
2022-08-30T20:06:15.335Z,97337.53
2022-08-30T20:11:21.776Z,97284.19
2022-08-30T20:16:33.073Z,97327.88
2022-08-30T20:21:41.609Z,97311.44
2022-08-30T20:26:47.547Z,97325.13
2022-08-30T20:31:51.445Z,97318.06
2022-08-30T20:36:57.962Z,97314.19
2022-08-30T20:42:01.478Z,97336.91
2022-08-30T20:47:05.038Z,97315.94
2022-08-30T20:52:10.501Z,97310.97
2022-08-30T20:57:23.842Z,97317.59
2022-08-30T21:02:28.119Z,97332.09
2022-08-30T21:07:32.495Z,97318.38
2022-08-30T21:12:36.261Z,97309.38
2022-08-30T21:17:40.263Z,97314.84
2022-08-30T21:22:45.277Z,97311.78
2022-08-30T21:27:48.945Z,97301.63
2022-08-30T21:32:53.251Z,97289.34
2022-08-30T21:37:56.882Z,97292.09
2022-08-30T21:43:05.871Z,97289.34
2022-08-30T21:48:10.460Z,97296.63
2022-08-30T21:53:17.313Z,97281.66
2022-08-30T21:58:20.754Z,97295.53
2022-08-30T22:03:25.393Z,97294.75
2022-08-30T22:08:30.430Z,97285.69
2022-08-30T22:13:35.890Z,97282.81
2022-08-30T22:18:40.036Z,97283.44
2022-08-30T22:23:43.561Z,97279.78
2022-08-30T22:28:47.444Z,97293.94
2022-08-30T22:33:52.980Z,97283.94
2022-08-30T22:39:00.044Z,97295.84
2022-08-30T22:44:08.707Z,97293.09
2022-08-30T22:49:13.398Z,97286.53
2022-08-30T22:54:17.061Z,97288.44
2022-08-30T22:59:20.448Z,97282.94
2022-08-30T23:04:31.116Z,97296.97
2022-08-30T23:09:34.349Z,97269.25
2022-08-30T23:14:37.677Z,97286.34
2022-08-30T23:19:41.105Z,97284.75
2022-08-30T23:24:46.313Z,97272.50
2022-08-30T23:29:55.661Z,97262.53
2022-08-30T23:34:59.646Z,97268.03
2022-08-30T23:40:04.800Z,97281.72
2022-08-30T23:45:08.730Z,97270.44
2022-08-30T23:50:12.094Z,97286.84
2022-08-30T23:55:15.432Z,97282.97
